createdAt,value
2023-02-27T00:00:16.414Z,0.66
2023-02-27T00:05:41.712Z,0.67
2023-02-27T00:10:44.357Z,0.66
2023-02-27T00:15:48.307Z,0.60
2023-02-27T00:20:51.478Z,0.51
2023-02-27T00:25:56.664Z,0.45
2023-02-27T00:30:59.396Z,0.43
2023-02-27T00:36:03.378Z,0.41
2023-02-27T00:41:05.990Z,0.43
2023-02-27T00:46:10.181Z,0.41
2023-02-27T00:51:13.156Z,0.36
2023-02-27T00:56:15.797Z,0.32
2023-02-27T01:01:18.359Z,0.34
2023-02-27T01:06:21.582Z,0.32
2023-02-27T01:11:24.487Z,0.31
2023-02-27T01:16:27.453Z,0.32
2023-02-27T01:21:30.065Z,0.38
2023-02-27T01:26:32.607Z,0.46
2023-02-27T01:31:35.242Z,0.53
2023-02-27T01:36:37.983Z,0.53
2023-02-27T01:41:40.868Z,0.44
2023-02-27T01:46:44.165Z,0.29
2023-02-27T01:52:08.225Z,0.18
2023-02-27T01:57:10.880Z,0.19
2023-02-27T02:02:27.160Z,0.21
2023-02-27T02:07:30.367Z,0.22
2023-02-27T02:12:35.579Z,0.27
2023-02-27T02:18:10.211Z,0.24
2023-02-27T02:23:43.563Z,0.20
2023-02-27T02:28:52.184Z,0.23
2023-02-27T02:33:57.544Z,0.17
2023-02-27T02:39:25.834Z,0.19
2023-02-27T02:44:40.241Z,0.23
2023-02-27T02:49:57.956Z,0.21
2023-02-27T02:55:16.552Z,0.16
2023-02-27T03:00:23.034Z,0.11
2023-02-27T03:05:39.804Z,0.07
2023-02-27T03:10:59.631Z,0.05
2023-02-27T03:16:12.227Z,0.06
2023-02-27T03:21:22.706Z,0.08
2023-02-27T03:26:33.128Z,0.14
2023-02-27T03:31:49.499Z,0.20
2023-02-27T03:37:10.878Z,0.22
2023-02-27T03:42:19.282Z,0.19
2023-02-27T03:47:22.324Z,0.17
2023-02-27T03:52:27.732Z,0.13
2023-02-27T03:57:32.014Z,0.07
2023-02-27T04:02:36.251Z,0.03
2023-02-27T04:07:51.844Z,0.04
2023-02-27T04:13:23.663Z,0.04
2023-02-27T04:18:45.007Z,0.04
2023-02-27T04:24:18.534Z,0.03
2023-02-27T04:29:49.156Z,0.02
2023-02-27T04:35:02.081Z,0.02
2023-02-27T04:40:10.392Z,0.02
2023-02-27T04:45:18.579Z,-0.04
2023-02-27T04:50:30.449Z,-0.12
2023-02-27T04:55:43.435Z,-0.20
2023-02-27T05:00:51.409Z,-0.26
2023-02-27T05:05:58.909Z,-0.31
2023-02-27T05:11:09.262Z,-0.35
2023-02-27T05:16:26.896Z,-0.40
2023-02-27T05:21:35.843Z,-0.50
2023-02-27T05:26:57.814Z,-0.59
2023-02-27T05:32:15.266Z,-0.63
2023-02-27T05:37:38.419Z,-0.64
2023-02-27T05:42:47.633Z,-0.69
2023-02-27T05:48:00.876Z,-0.79
2023-02-27T05:53:09.583Z,-0.89
2023-02-27T05:58:24.462Z,-0.95
2023-02-27T06:03:32.672Z,-0.94
2023-02-27T06:08:35.667Z,-0.90
2023-02-27T06:13:40.239Z,-0.85
2023-02-27T06:18:44.372Z,-0.80
2023-02-27T06:23:46.910Z,-0.68
2023-02-27T06:28:50.409Z,-0.49
2023-02-27T06:33:53.048Z,-0.33
2023-02-27T06:38:55.732Z,-0.19
2023-02-27T06:43:58.325Z,-0.04
2023-02-27T06:49:00.903Z,0.09
2023-02-27T06:54:03.557Z,0.23
2023-02-27T06:59:06.155Z,0.32
2023-02-27T07:04:12.952Z,0.43
2023-02-27T07:09:15.701Z,0.68
2023-02-27T07:14:18.324Z,0.92
2023-02-27T07:19:22.587Z,1.12
2023-02-27T07:24:25.693Z,1.18
2023-02-27T07:29:28.475Z,1.21
2023-02-27T07:34:31.091Z,1.36
2023-02-27T07:39:34.152Z,1.53
2023-02-27T07:44:37.011Z,1.82
2023-02-27T07:49:39.581Z,2.09
2023-02-27T07:54:42.265Z,2.27
2023-02-27T07:59:44.908Z,2.38
2023-02-27T08:04:47.496Z,2.45
2023-02-27T08:09:50.122Z,2.53
2023-02-27T08:14:52.708Z,2.69
2023-02-27T08:19:56.562Z,2.91
2023-02-27T08:24:59.201Z,3.06
2023-02-27T08:30:02.262Z,3.21
2023-02-27T08:35:05.645Z,3.25
2023-02-27T08:40:10.792Z,3.23
2023-02-27T08:45:15.987Z,3.47
2023-02-27T08:50:18.974Z,3.69
2023-02-27T08:55:21.532Z,3.66
2023-02-27T09:00:25.106Z,3.64
2023-02-27T09:05:28.892Z,3.67
2023-02-27T09:10:33.030Z,3.69
2023-02-27T09:15:35.632Z,3.73
2023-02-27T09:20:41.330Z,3.87
2023-02-27T09:25:44.423Z,3.98
2023-02-27T09:30:47.294Z,4.08
2023-02-27T09:35:51.320Z,3.87
2023-02-27T09:40:56.263Z,3.90
2023-02-27T09:46:00.841Z,3.89
2023-02-27T09:51:03.763Z,3.97
2023-02-27T09:56:22.260Z,4.10
2023-02-27T10:01:28.211Z,4.15
2023-02-27T10:06:37.847Z,4.03
2023-02-27T10:11:56.286Z,4.23
2023-02-27T10:17:03.516Z,4.22
2023-02-27T10:22:13.391Z,4.11
2023-02-27T10:27:19.732Z,3.96
2023-02-27T10:32:24.878Z,3.81
2023-02-27T10:37:28.544Z,4.00
2023-02-27T10:42:36.327Z,4.33
2023-02-27T10:47:39.677Z,4.47
2023-02-27T10:52:50.692Z,4.45
2023-02-27T10:57:55.852Z,4.52
2023-02-27T11:02:59.071Z,4.72
2023-02-27T11:08:22.955Z,4.79
2023-02-27T11:13:29.501Z,4.54
2023-02-27T11:18:33.829Z,4.54
2023-02-27T11:23:37.413Z,4.67
2023-02-27T11:28:40.100Z,4.82
2023-02-27T11:33:53.114Z,4.68
2023-02-27T11:38:56.710Z,4.53
2023-02-27T11:44:02.118Z,4.47
2023-02-27T11:49:34.177Z,4.48
2023-02-27T11:54:48.546Z,4.67
2023-02-27T11:59:58.744Z,4.81
2023-02-27T12:05:19.296Z,4.74
2023-02-27T12:11:14.857Z,4.80
2023-02-27T12:16:40.295Z,4.94
2023-02-27T12:21:49.537Z,4.95
2023-02-27T12:27:24.935Z,5.01
2023-02-27T12:32:45.597Z,5.08
2023-02-27T12:37:48.460Z,5.19
2023-02-27T12:42:54.051Z,5.31
2023-02-27T12:48:28.390Z,5.30
2023-02-27T12:53:48.254Z,5.33
2023-02-27T12:59:05.960Z,5.35
2023-02-27T13:04:24.270Z,5.56
2023-02-27T13:09:47.062Z,5.64
2023-02-27T13:14:54.118Z,5.58
2023-02-27T13:20:19.670Z,5.52
2023-02-27T13:25:23.772Z,5.44
2023-02-27T13:30:35.646Z,5.39
2023-02-27T13:36:10.121Z,5.40
2023-02-27T13:41:28.953Z,5.44
2023-02-27T13:46:33.628Z,5.46
2023-02-27T13:51:36.078Z,5.51
2023-02-27T13:56:50.370Z,5.57
2023-02-27T14:01:55.564Z,5.58
2023-02-27T14:07:01.490Z,5.30
2023-02-27T14:12:07.249Z,5.17
2023-02-27T14:17:33.599Z,6.13
2023-02-27T14:22:44.128Z,7.04
2023-02-27T14:27:55.841Z,6.74
2023-02-27T14:33:39.065Z,6.17
2023-02-27T14:38:42.763Z,5.67
2023-02-27T14:43:55.093Z,5.13
2023-02-27T14:49:05.044Z,4.64
2023-02-27T14:54:16.234Z,4.30
2023-02-27T14:59:23.290Z,5.21
2023-02-27T15:04:31.424Z,5.62
2023-02-27T15:09:34.714Z,5.31
2023-02-27T15:14:40.190Z,4.96
2023-02-27T15:19:48.768Z,4.55
2023-02-27T15:24:52.165Z,4.32
2023-02-27T15:29:59.698Z,4.65
2023-02-27T15:35:05.450Z,5.50
2023-02-27T15:40:19.534Z,5.39
2023-02-27T15:45:26.038Z,4.77
2023-02-27T15:50:33.855Z,4.12
2023-02-27T15:55:56.623Z,3.65
2023-02-27T16:01:02.563Z,3.32
2023-02-27T16:06:12.152Z,3.01
2023-02-27T16:11:23.268Z,2.71
2023-02-27T16:16:38.356Z,2.42
2023-02-27T16:22:16.844Z,2.16
2023-02-27T16:27:26.743Z,1.92
2023-02-27T16:32:48.707Z,1.65
2023-02-27T16:37:53.644Z,1.52
2023-02-27T16:42:57.918Z,1.35
2023-02-27T16:48:01.005Z,1.19
2023-02-27T16:53:03.790Z,1.03
2023-02-27T16:58:06.801Z,0.87
2023-02-27T17:03:09.477Z,0.73
2023-02-27T17:08:12.837Z,0.61
2023-02-27T17:13:15.938Z,0.51
2023-02-27T17:18:18.765Z,0.40
2023-02-27T17:23:21.275Z,0.31
2023-02-27T17:28:24.236Z,0.22
2023-02-27T17:33:26.747Z,0.15
2023-02-27T17:38:29.390Z,0.07
2023-02-27T17:43:32.421Z,-0.06
2023-02-27T17:48:37.038Z,-0.16
2023-02-27T17:53:40.263Z,-0.24
2023-02-27T17:58:45.340Z,-0.30
2023-02-27T18:03:49.382Z,-0.35
2023-02-27T18:08:51.909Z,-0.40
2023-02-27T18:13:54.433Z,-0.46
2023-02-27T18:18:57.192Z,-0.53
2023-02-27T18:24:01.108Z,-0.63
2023-02-27T18:29:07.973Z,-0.73
2023-02-27T18:34:12.087Z,-0.83
2023-02-27T18:39:14.855Z,-0.93
2023-02-27T18:44:17.402Z,-1.01
2023-02-27T18:49:19.876Z,-1.06
2023-02-27T18:54:22.326Z,-1.11
2023-02-27T18:59:24.876Z,-1.16
2023-02-27T19:04:27.421Z,-1.21
2023-02-27T19:09:32.787Z,-1.25
2023-02-27T19:14:35.318Z,-1.33
2023-02-27T19:19:38.218Z,-1.42
2023-02-27T19:24:40.678Z,-1.49
2023-02-27T19:29:43.160Z,-1.58
2023-02-27T19:34:45.882Z,-1.66
2023-02-27T19:39:48.684Z,-1.71
2023-02-27T19:44:51.928Z,-1.76
2023-02-27T19:49:54.414Z,-1.81
2023-02-27T19:54:58.419Z,-1.85
2023-02-27T20:00:00.924Z,-1.90
2023-02-27T20:05:03.725Z,-1.94
2023-02-27T20:10:06.802Z,-1.94
2023-02-27T20:15:11.568Z,-1.94
2023-02-27T20:20:14.295Z,-1.93
2023-02-27T20:25:16.802Z,-1.94
2023-02-27T20:30:19.664Z,-1.96
2023-02-27T20:35:22.311Z,-2.03
2023-02-27T20:40:28.704Z,-2.14
2023-02-27T20:45:31.212Z,-2.23
2023-02-27T20:50:34.509Z,-2.32
2023-02-27T20:55:37.086Z,-2.38
2023-02-27T21:00:39.890Z,-2.37
2023-02-27T21:05:47.665Z,-2.36
2023-02-27T21:10:51.515Z,-2.35
2023-02-27T21:15:54.084Z,-2.38
2023-02-27T21:20:59.402Z,-2.41
2023-02-27T21:26:04.692Z,-2.41
2023-02-27T21:31:07.511Z,-2.43
2023-02-27T21:36:10.791Z,-2.47
2023-02-27T21:41:13.487Z,-2.55
2023-02-27T21:46:16.100Z,-2.62
2023-02-27T21:51:36.840Z,-2.70
2023-02-27T21:56:42.912Z,-2.76
2023-02-27T22:01:47.624Z,-2.81
2023-02-27T22:06:52.541Z,-2.83
2023-02-27T22:11:55.212Z,-2.81
2023-02-27T22:16:58.240Z,-2.77
2023-02-27T22:22:00.835Z,-2.71
2023-02-27T22:27:04.054Z,-2.72
2023-02-27T22:32:06.918Z,-2.79
2023-02-27T22:37:09.598Z,-2.88
2023-02-27T22:42:12.389Z,-3.01
2023-02-27T22:47:15.376Z,-3.13
2023-02-27T22:52:19.254Z,-3.22
2023-02-27T22:57:22.031Z,-3.29
2023-02-27T23:02:25.108Z,-3.34
2023-02-27T23:07:27.988Z,-3.38
2023-02-27T23:12:30.526Z,-3.39
2023-02-27T23:17:33.139Z,-3.37
2023-02-27T23:22:36.062Z,-3.39
2023-02-27T23:27:38.647Z,-3.41
2023-02-27T23:32:44.110Z,-3.44
2023-02-27T23:37:49.466Z,-3.47
2023-02-27T23:42:52.331Z,-3.52
2023-02-27T23:47:57.117Z,-3.57
2023-02-27T23:53:00.479Z,-3.59
2023-02-27T23:58:05.772Z,-3.57
